createdAt,value
2022-12-17T00:00:32.594Z,59.40
2022-12-17T00:01:32.519Z,58.70
2022-12-17T00:02:32.565Z,57.40
2022-12-17T00:03:32.709Z,56.90
2022-12-17T00:04:32.500Z,56.00
2022-12-17T00:05:32.488Z,55.00
2022-12-17T00:06:32.578Z,55.40
2022-12-17T00:07:32.496Z,59.90
2022-12-17T00:08:32.459Z,60.30
2022-12-17T00:09:32.491Z,58.20
2022-12-17T00:10:32.446Z,55.40
2022-12-17T00:11:32.472Z,58.30
2022-12-17T00:12:32.441Z,55.00
2022-12-17T00:13:32.855Z,61.00
2022-12-17T00:14:32.424Z,57.80
2022-12-17T00:15:32.412Z,57.80
2022-12-17T00:16:32.478Z,58.60
2022-12-17T00:17:32.411Z,57.60
2022-12-17T00:18:32.394Z,55.70
2022-12-17T00:19:32.427Z,56.40
2022-12-17T00:20:32.382Z,58.20
2022-12-17T00:21:32.398Z,55.90
2022-12-17T00:22:32.367Z,57.70
2022-12-17T00:23:32.577Z,59.70
2022-12-17T00:24:32.359Z,55.00
2022-12-17T00:25:32.343Z,57.40
2022-12-17T00:26:32.369Z,54.60
2022-12-17T00:27:32.354Z,53.90
2022-12-17T00:28:32.334Z,56.70
2022-12-17T00:29:32.320Z,56.10
2022-12-17T00:30:32.325Z,55.30
2022-12-17T00:31:32.364Z,54.50
2022-12-17T00:32:32.309Z,54.20
2022-12-17T00:33:32.659Z,54.20
2022-12-17T00:34:32.278Z,55.90
2022-12-17T00:35:32.276Z,56.70
2022-12-17T00:36:32.297Z,56.50
2022-12-17T00:37:33.264Z,59.50
2022-12-17T00:38:32.255Z,57.20
2022-12-17T00:39:32.260Z,55.40
2022-12-17T00:40:32.247Z,57.60
2022-12-17T00:41:32.267Z,57.60
2022-12-17T00:42:32.231Z,56.40
2022-12-17T00:43:32.310Z,56.40
2022-12-17T00:44:32.218Z,55.90
2022-12-17T00:45:32.207Z,56.20
2022-12-17T00:46:32.295Z,54.80
2022-12-17T00:47:32.213Z,58.40
2022-12-17T00:48:32.188Z,58.50
2022-12-17T00:49:32.181Z,56.90
2022-12-17T00:50:32.166Z,58.10
2022-12-17T00:51:32.190Z,59.80
2022-12-17T00:52:32.157Z,60.40
2022-12-17T00:53:32.147Z,60.70
2022-12-17T00:54:32.140Z,63.90
2022-12-17T00:55:32.131Z,59.50
2022-12-17T00:56:32.162Z,61.60
2022-12-17T00:57:32.117Z,61.30
2022-12-17T00:58:32.108Z,60.30
2022-12-17T00:59:32.105Z,59.50
2022-12-17T01:00:32.125Z,60.60
2022-12-17T01:01:32.256Z,56.50
2022-12-17T01:02:32.252Z,60.30
2022-12-17T01:03:32.075Z,54.90
2022-12-17T01:04:32.105Z,56.60
2022-12-17T01:05:32.057Z,54.00
2022-12-17T01:06:32.058Z,55.00
2022-12-17T01:07:32.088Z,54.30
2022-12-17T01:08:33.033Z,54.70
2022-12-17T01:09:32.028Z,54.00
2022-12-17T01:10:32.028Z,53.30
2022-12-17T01:11:32.021Z,52.30
2022-12-17T01:12:32.043Z,52.20
2022-12-17T01:13:32.019Z,52.90
2022-12-17T01:14:31.997Z,52.10
2022-12-17T01:15:31.998Z,53.10
2022-12-17T01:16:32.092Z,51.80
2022-12-17T01:17:32.010Z,52.70
2022-12-17T01:18:31.979Z,52.00
2022-12-17T01:19:31.968Z,52.40
2022-12-17T01:20:31.963Z,52.00
2022-12-17T01:21:31.953Z,51.40
2022-12-17T01:22:31.975Z,55.60
2022-12-17T01:23:31.949Z,52.70
2022-12-17T01:24:31.930Z,53.00
2022-12-17T01:25:31.923Z,52.80
2022-12-17T01:26:31.926Z,53.40
2022-12-17T01:27:31.939Z,52.90
2022-12-17T01:28:31.902Z,48.70
2022-12-17T01:29:31.893Z,54.20
2022-12-17T01:30:31.894Z,52.50
2022-12-17T01:31:35.243Z,52.50
2022-12-17T01:32:32.893Z,51.60
2022-12-17T01:33:31.870Z,51.20
2022-12-17T01:34:31.862Z,50.80
2022-12-17T01:35:31.852Z,50.80
2022-12-17T01:36:31.842Z,52.60
2022-12-17T01:37:31.866Z,49.60
2022-12-17T01:38:31.831Z,49.80
2022-12-17T01:39:31.838Z,52.20
2022-12-17T01:40:31.819Z,54.30
2022-12-17T01:41:31.818Z,54.70
2022-12-17T01:42:31.831Z,54.70
2022-12-17T01:43:31.921Z,55.30
2022-12-17T01:44:31.794Z,58.20
2022-12-17T01:45:31.810Z,59.80
2022-12-17T01:46:31.782Z,61.50
2022-12-17T01:47:31.953Z,58.70
2022-12-17T01:48:31.766Z,55.60
2022-12-17T01:49:31.751Z,50.00
2022-12-17T01:50:31.747Z,54.90
2022-12-17T01:51:31.752Z,53.20
2022-12-17T01:52:32.759Z,51.20
2022-12-17T01:53:31.721Z,50.90
2022-12-17T01:54:31.719Z,54.40
2022-12-17T01:55:31.709Z,52.90
2022-12-17T01:56:31.721Z,53.10
2022-12-17T01:57:31.740Z,52.50
2022-12-17T01:58:31.689Z,51.50
2022-12-17T01:59:31.686Z,49.10
2022-12-17T02:00:31.670Z,52.10
2022-12-17T02:01:31.798Z,50.10
2022-12-17T02:02:31.853Z,52.30
2022-12-17T02:03:31.682Z,50.90
2022-12-17T02:04:31.650Z,51.30
2022-12-17T02:05:31.639Z,50.60
2022-12-17T02:06:31.656Z,48.50
2022-12-17T02:07:31.734Z,51.10
2022-12-17T02:08:31.618Z,51.40
2022-12-17T02:09:31.625Z,50.80
2022-12-17T02:10:31.606Z,48.80
2022-12-17T02:11:31.595Z,50.80
2022-12-17T02:12:31.585Z,50.30
2022-12-17T02:13:31.674Z,49.10
2022-12-17T02:14:31.580Z,51.10
2022-12-17T02:15:31.561Z,50.30
2022-12-17T02:16:31.604Z,51.20
2022-12-17T02:17:31.550Z,52.80
2022-12-17T02:18:31.586Z,51.00
2022-12-17T02:19:31.541Z,50.70
2022-12-17T02:20:31.551Z,52.70
2022-12-17T02:21:31.555Z,51.50
2022-12-17T02:22:31.513Z,49.30
2022-12-17T02:23:31.542Z,50.40
2022-12-17T02:24:31.496Z,49.90
2022-12-17T02:25:31.488Z,51.40
2022-12-17T02:26:31.518Z,49.40
2022-12-17T02:27:31.480Z,50.50
2022-12-17T02:28:31.496Z,51.60
2022-12-17T02:29:31.457Z,49.20
2022-12-17T02:30:31.467Z,51.60
2022-12-17T02:31:31.532Z,47.90
2022-12-17T02:32:31.452Z,50.60
2022-12-17T02:33:31.464Z,49.80
2022-12-17T02:34:31.429Z,52.50
2022-12-17T02:35:31.470Z,49.00
2022-12-17T02:36:31.409Z,49.20
2022-12-17T02:37:31.434Z,49.70
2022-12-17T02:38:31.428Z,49.20
2022-12-17T02:39:31.396Z,52.20
2022-12-17T02:40:31.384Z,46.70
2022-12-17T02:41:31.381Z,49.20
2022-12-17T02:42:31.380Z,48.40
2022-12-17T02:43:32.573Z,48.60
2022-12-17T02:44:31.378Z,51.10
2022-12-17T02:45:31.415Z,49.20
2022-12-17T02:46:31.348Z,50.30
2022-12-17T02:47:31.340Z,49.30
2022-12-17T02:48:31.360Z,47.90
2022-12-17T02:49:31.325Z,46.50
2022-12-17T02:50:31.324Z,50.10
2022-12-17T02:51:31.310Z,48.20
2022-12-17T02:52:34.849Z,47.80
2022-12-17T02:53:32.388Z,47.10
2022-12-17T02:54:31.301Z,48.70
2022-12-17T02:55:31.287Z,43.10
2022-12-17T02:56:31.272Z,44.60
2022-12-17T02:57:31.267Z,44.90
2022-12-17T02:58:31.288Z,45.80
2022-12-17T02:59:31.248Z,45.50
2022-12-17T03:00:31.241Z,43.20
2022-12-17T03:01:31.315Z,43.70
2022-12-17T03:02:31.368Z,45.60
2022-12-17T03:03:31.279Z,46.00
2022-12-17T03:04:31.223Z,48.50
2022-12-17T03:05:46.515Z,43.60
2022-12-17T03:06:33.204Z,47.00
2022-12-17T03:07:31.193Z,45.10
2022-12-17T03:08:31.209Z,43.60
2022-12-17T03:09:31.184Z,44.60
2022-12-17T03:10:31.171Z,44.70
2022-12-17T03:11:31.165Z,44.80
2022-12-17T03:12:31.175Z,44.30
2022-12-17T03:13:31.185Z,45.00
2022-12-17T03:14:31.148Z,44.00
2022-12-17T03:15:31.133Z,44.40
2022-12-17T03:16:35.801Z,44.50
2022-12-17T03:17:33.128Z,45.10
2022-12-17T03:18:31.152Z,42.50
2022-12-17T03:19:31.118Z,45.90
2022-12-17T03:20:31.107Z,41.70
2022-12-17T03:21:31.100Z,43.20
2022-12-17T03:22:31.092Z,44.60
2022-12-17T03:23:31.087Z,45.30
2022-12-17T03:24:31.103Z,47.10
2022-12-17T03:25:31.066Z,47.00
2022-12-17T03:26:31.067Z,45.00
2022-12-17T03:27:31.056Z,46.30
2022-12-17T03:28:31.046Z,46.30
2022-12-17T03:29:31.070Z,43.30
2022-12-17T03:30:35.505Z,43.20
2022-12-17T03:31:33.043Z,42.50
2022-12-17T03:32:31.026Z,45.80
2022-12-17T03:33:31.015Z,44.00
2022-12-17T03:34:31.031Z,41.60
2022-12-17T03:35:31.015Z,40.40
2022-12-17T03:36:32.001Z,41.50
2022-12-17T03:37:30.983Z,41.90
2022-12-17T03:38:30.977Z,43.10
2022-12-17T03:39:31.038Z,45.30
2022-12-17T03:40:30.958Z,46.30
2022-12-17T03:41:30.956Z,46.10
2022-12-17T03:42:30.948Z,45.00
2022-12-17T03:43:30.945Z,45.60
2022-12-17T03:44:30.962Z,45.20
2022-12-17T03:45:30.932Z,43.80
2022-12-17T03:46:30.994Z,44.60
2022-12-17T03:47:30.914Z,47.30
2022-12-17T03:48:30.909Z,44.80
2022-12-17T03:49:30.948Z,45.20
2022-12-17T03:50:30.889Z,44.60
2022-12-17T03:51:30.890Z,45.60
2022-12-17T03:52:30.876Z,44.70
2022-12-17T03:53:30.897Z,47.60
2022-12-17T03:54:30.890Z,47.90
2022-12-17T03:55:30.867Z,42.80
2022-12-17T03:56:30.849Z,45.10
2022-12-17T03:57:30.843Z,44.20
2022-12-17T03:58:30.831Z,42.80
2022-12-17T03:59:30.853Z,44.30
2022-12-17T04:00:30.818Z,43.10
2022-12-17T04:01:30.864Z,42.10
2022-12-17T04:02:30.940Z,43.80
2022-12-17T04:03:30.840Z,43.20
2022-12-17T04:04:30.811Z,52.00
2022-12-17T04:05:30.777Z,55.70
2022-12-17T04:06:30.775Z,47.00
2022-12-17T04:07:30.779Z,49.50
2022-12-17T04:08:30.760Z,52.50
2022-12-17T04:09:30.789Z,50.00
2022-12-17T04:10:30.752Z,53.60
2022-12-17T04:11:30.783Z,91.50
2022-12-17T04:12:30.736Z,61.40
2022-12-17T04:13:31.535Z,60.30
2022-12-17T04:14:30.754Z,56.80
2022-12-17T04:15:30.799Z,48.80
2022-12-17T04:16:30.720Z,49.40
2022-12-17T04:17:30.697Z,44.90
2022-12-17T04:18:30.710Z,41.70
2022-12-17T04:19:30.712Z,41.10
2022-12-17T04:20:30.681Z,41.40
2022-12-17T04:21:30.680Z,43.80
2022-12-17T04:22:30.663Z,45.10
2022-12-17T04:23:30.651Z,44.20
2022-12-17T04:24:30.672Z,42.70
2022-12-17T04:25:30.650Z,45.80
2022-12-17T04:26:30.632Z,44.80
2022-12-17T04:27:30.627Z,46.70
2022-12-17T04:28:30.622Z,48.80
2022-12-17T04:29:30.622Z,44.40
2022-12-17T04:30:30.635Z,46.00
2022-12-17T04:31:30.658Z,46.30
2022-12-17T04:32:35.052Z,49.80
2022-12-17T04:33:31.577Z,49.40
2022-12-17T04:34:30.564Z,44.50
2022-12-17T04:35:30.587Z,47.10
2022-12-17T04:36:30.554Z,46.80
2022-12-17T04:37:30.550Z,48.70
2022-12-17T04:38:30.548Z,52.00
2022-12-17T04:39:30.551Z,55.90
2022-12-17T04:40:30.559Z,51.30
2022-12-17T04:41:30.521Z,48.90
2022-12-17T04:42:30.515Z,54.70
2022-12-17T04:43:30.521Z,55.10
2022-12-17T04:44:30.514Z,49.80
2022-12-17T04:45:30.516Z,52.20
2022-12-17T04:46:30.621Z,57.10
2022-12-17T04:47:30.478Z,54.90
2022-12-17T04:48:30.479Z,53.00
2022-12-17T04:49:30.491Z,53.00
2022-12-17T04:50:30.489Z,58.10
2022-12-17T04:51:30.455Z,67.90
2022-12-17T04:52:30.458Z,58.40
2022-12-17T04:53:30.443Z,57.10
2022-12-17T04:54:30.442Z,63.40
2022-12-17T04:55:30.456Z,57.60
2022-12-17T04:56:30.423Z,59.30
2022-12-17T04:57:30.407Z,68.10
2022-12-17T04:58:30.423Z,62.70
2022-12-17T04:59:30.394Z,65.90
2022-12-17T05:00:30.426Z,65.60
2022-12-17T05:01:30.457Z,73.50
2022-12-17T05:02:30.520Z,70.30
2022-12-17T05:03:30.431Z,75.30
2022-12-17T05:04:30.382Z,88.50
2022-12-17T05:05:30.377Z,83.90
2022-12-17T05:06:30.348Z,78.50
2022-12-17T05:07:30.334Z,76.00
2022-12-17T05:08:30.330Z,67.40
2022-12-17T05:09:30.321Z,70.80
2022-12-17T05:10:30.348Z,70.70
2022-12-17T05:11:30.315Z,72.10
2022-12-17T05:12:30.300Z,72.30
2022-12-17T05:13:30.293Z,68.80
2022-12-17T05:14:30.283Z,72.60
2022-12-17T05:15:30.372Z,77.20
2022-12-17T05:16:30.350Z,75.50
2022-12-17T05:17:30.267Z,73.40
2022-12-17T05:18:30.265Z,83.50
2022-12-17T05:19:30.245Z,86.80
2022-12-17T05:20:30.265Z,85.00
2022-12-17T05:21:33.365Z,99.90
2022-12-17T05:22:31.225Z,92.20
2022-12-17T05:23:30.224Z,90.00
2022-12-17T05:24:30.210Z,91.80
2022-12-17T05:25:30.236Z,93.90
2022-12-17T05:26:30.223Z,91.60
2022-12-17T05:27:30.192Z,97.70
2022-12-17T05:28:30.187Z,99.00
2022-12-17T05:29:30.185Z,91.30
2022-12-17T05:30:30.219Z,96.80
2022-12-17T05:31:30.200Z,96.00
2022-12-17T05:32:30.160Z,93.70
2022-12-17T05:33:30.148Z,100.80
2022-12-17T05:34:30.147Z,89.80
2022-12-17T05:35:30.156Z,98.10
2022-12-17T05:36:31.127Z,97.90
2022-12-17T05:37:30.126Z,94.50
2022-12-17T05:38:30.125Z,95.40
2022-12-17T05:39:30.109Z,95.80
2022-12-17T05:40:30.107Z,106.60
2022-12-17T05:41:30.155Z,106.10
2022-12-17T05:42:30.081Z,108.50
2022-12-17T05:43:30.078Z,97.00
2022-12-17T05:44:30.066Z,93.20
2022-12-17T05:45:30.059Z,96.40
2022-12-17T05:46:30.115Z,91.60
2022-12-17T05:47:30.049Z,91.50
2022-12-17T05:48:30.041Z,95.90
2022-12-17T05:49:30.033Z,95.30
2022-12-17T05:50:30.033Z,94.90
2022-12-17T05:51:32.479Z,97.20
2022-12-17T05:52:30.192Z,92.10
2022-12-17T05:53:30.999Z,98.10
2022-12-17T05:54:30.005Z,98.20
2022-12-17T05:55:29.992Z,105.00
2022-12-17T05:56:30.011Z,100.00
2022-12-17T05:57:29.982Z,92.70
2022-12-17T05:58:30.024Z,95.00
2022-12-17T05:59:29.983Z,106.40
2022-12-17T06:00:29.964Z,103.20
2022-12-17T06:01:30.023Z,105.10
2022-12-17T06:02:30.018Z,103.50
2022-12-17T06:03:30.042Z,113.30
2022-12-17T06:04:30.186Z,115.50
2022-12-17T06:05:29.925Z,99.10
2022-12-17T06:06:29.917Z,97.20
2022-12-17T06:07:29.902Z,105.80
2022-12-17T06:08:29.894Z,99.90
2022-12-17T06:09:29.929Z,99.50
2022-12-17T06:10:29.887Z,108.00
2022-12-17T06:11:29.899Z,116.70
2022-12-17T06:12:29.879Z,115.50
2022-12-17T06:13:29.855Z,119.20
2022-12-17T06:14:29.859Z,121.80
2022-12-17T06:15:29.875Z,143.40
2022-12-17T06:16:29.894Z,113.30
2022-12-17T06:17:29.833Z,104.70
2022-12-17T06:18:29.824Z,110.30
2022-12-17T06:19:29.817Z,132.30
2022-12-17T06:20:29.833Z,130.30
2022-12-17T06:21:29.813Z,144.80
2022-12-17T06:22:29.789Z,122.80
2022-12-17T06:23:29.783Z,120.60
2022-12-17T06:24:29.779Z,133.80
2022-12-17T06:25:29.798Z,128.00
2022-12-17T06:26:29.771Z,134.90
2022-12-17T06:27:29.762Z,148.10
2022-12-17T06:28:29.748Z,136.70
2022-12-17T06:29:29.749Z,121.80
2022-12-17T06:30:29.766Z,125.50
2022-12-17T06:31:29.768Z,158.70
2022-12-17T06:32:29.743Z,173.80
2022-12-17T06:33:29.712Z,226.50
2022-12-17T06:34:29.719Z,128.80
2022-12-17T06:35:29.725Z,157.90
2022-12-17T06:36:29.696Z,131.70
2022-12-17T06:37:29.691Z,140.40
2022-12-17T06:38:29.686Z,112.10
2022-12-17T06:39:29.679Z,106.90
2022-12-17T06:40:29.725Z,103.10
2022-12-17T06:41:29.661Z,110.00
2022-12-17T06:42:29.660Z,118.10
2022-12-17T06:43:29.649Z,118.90
2022-12-17T06:44:29.647Z,118.00
2022-12-17T06:45:29.662Z,130.00
2022-12-17T06:46:32.155Z,110.20
2022-12-17T06:47:31.955Z,105.20
2022-12-17T06:48:31.549Z,112.70
2022-12-17T06:49:32.042Z,112.20
2022-12-17T06:50:32.452Z,113.00
2022-12-17T06:51:32.476Z,113.40
2022-12-17T06:52:31.181Z,99.80
2022-12-17T06:53:32.056Z,107.60
2022-12-17T06:54:31.957Z,106.00
2022-12-17T06:55:32.022Z,98.60
2022-12-17T06:56:34.458Z,100.90
2022-12-17T06:57:30.698Z,103.60
2022-12-17T06:58:31.496Z,100.90
2022-12-17T06:59:32.954Z,96.00
2022-12-17T07:00:31.659Z,93.20
2022-12-17T07:01:32.123Z,104.70
2022-12-17T07:02:32.637Z,105.50
2022-12-17T07:03:31.098Z,106.50
2022-12-17T07:04:32.484Z,100.00
2022-12-17T07:05:31.545Z,102.30
2022-12-17T07:06:33.480Z,108.70
2022-12-17T07:07:32.252Z,104.20
2022-12-17T07:08:33.459Z,105.00
2022-12-17T07:09:33.543Z,101.80
2022-12-17T07:10:31.297Z,99.00
2022-12-17T07:11:31.548Z,98.20
2022-12-17T07:12:32.956Z,102.30
2022-12-17T07:13:32.018Z,102.20
2022-12-17T07:14:30.198Z,95.40
2022-12-17T07:15:31.031Z,93.50
2022-12-17T07:16:36.527Z,96.40
2022-12-17T07:17:34.459Z,92.80
2022-12-17T07:18:30.515Z,97.00
2022-12-17T07:19:32.470Z,92.10
2022-12-17T07:20:31.555Z,93.40
2022-12-17T07:21:32.456Z,92.20
2022-12-17T07:22:32.057Z,92.60
2022-12-17T07:23:31.959Z,97.00
2022-12-17T07:24:31.455Z,93.80
2022-12-17T07:25:31.975Z,91.30
2022-12-17T07:26:32.026Z,96.40
2022-12-17T07:27:30.072Z,111.60
2022-12-17T07:28:31.718Z,126.00
2022-12-17T07:29:30.959Z,115.20
2022-12-17T07:30:31.030Z,85.90
2022-12-17T07:31:31.163Z,94.50
2022-12-17T07:32:29.980Z,87.70
2022-12-17T07:33:31.038Z,91.30
2022-12-17T07:34:31.469Z,89.10
2022-12-17T07:35:29.964Z,101.10
2022-12-17T07:36:34.965Z,104.10
2022-12-17T07:37:32.984Z,115.30
2022-12-17T07:38:35.038Z,111.70
2022-12-17T07:39:31.071Z,106.00
2022-12-17T07:40:31.962Z,105.90
2022-12-17T07:41:30.554Z,104.10
2022-12-17T07:42:31.994Z,94.40
2022-12-17T07:43:32.046Z,92.30
2022-12-17T07:44:30.012Z,80.40
2022-12-17T07:45:30.096Z,92.00
2022-12-17T07:46:29.403Z,109.60
2022-12-17T07:47:29.962Z,74.70
2022-12-17T07:48:31.972Z,76.10
2022-12-17T07:49:31.533Z,79.70
2022-12-17T07:50:32.973Z,71.50
2022-12-17T07:51:32.509Z,113.10
2022-12-17T07:52:29.961Z,83.40
2022-12-17T07:53:31.458Z,143.00
2022-12-17T07:54:30.032Z,93.90
2022-12-17T07:55:32.023Z,152.20
2022-12-17T07:56:31.008Z,129.00
2022-12-17T07:57:30.198Z,95.80
2022-12-17T07:58:30.982Z,95.80
2022-12-17T07:59:30.989Z,89.90
2022-12-17T08:00:31.036Z,100.50
2022-12-17T08:01:32.649Z,130.10
2022-12-17T08:02:31.707Z,124.50
2022-12-17T08:03:30.631Z,87.60
2022-12-17T08:04:30.249Z,94.20
2022-12-17T08:05:31.483Z,95.20
2022-12-17T08:06:32.475Z,95.70
2022-12-17T08:07:30.985Z,84.50
2022-12-17T08:08:30.541Z,91.30
2022-12-17T08:09:30.463Z,104.70
2022-12-17T08:10:31.009Z,102.30
2022-12-17T08:11:31.460Z,98.20
2022-12-17T08:12:29.668Z,89.70
2022-12-17T08:13:31.544Z,92.40
2022-12-17T08:14:30.495Z,97.60
2022-12-17T08:15:30.490Z,110.40
2022-12-17T08:16:29.756Z,110.80
2022-12-17T08:17:30.538Z,97.70
2022-12-17T08:18:29.084Z,88.80
2022-12-17T08:19:31.032Z,93.60
2022-12-17T08:20:31.963Z,80.60
2022-12-17T08:21:30.961Z,78.20
2022-12-17T08:22:30.463Z,71.40
2022-12-17T08:23:30.467Z,71.70
2022-12-17T08:24:30.548Z,74.40
2022-12-17T08:25:30.462Z,76.70
2022-12-17T08:26:30.564Z,77.40
2022-12-17T08:27:30.467Z,70.50
2022-12-17T08:29:32.534Z,61.50
2022-12-17T08:30:31.589Z,65.50
2022-12-17T08:31:31.013Z,61.20
2022-12-17T08:32:31.472Z,71.70
2022-12-17T08:33:29.536Z,63.70
2022-12-17T08:34:30.964Z,66.60
2022-12-17T08:35:29.477Z,69.90
2022-12-17T08:36:33.964Z,71.70
2022-12-17T08:37:29.965Z,71.20
2022-12-17T08:38:30.196Z,73.50
2022-12-17T08:39:32.463Z,69.70
2022-12-17T08:40:30.469Z,69.00
2022-12-17T08:41:29.463Z,66.70
2022-12-17T08:42:33.465Z,85.30
2022-12-17T08:43:30.527Z,79.10
2022-12-17T08:44:30.518Z,74.20
2022-12-17T08:45:30.541Z,76.60
2022-12-17T08:46:31.080Z,77.50
2022-12-17T08:47:30.541Z,71.10
2022-12-17T08:48:31.547Z,69.20
2022-12-17T08:49:30.466Z,73.80
2022-12-17T08:50:30.542Z,96.80
2022-12-17T08:51:29.674Z,115.80
2022-12-17T08:52:31.010Z,102.30
2022-12-17T08:53:34.717Z,81.30
2022-12-17T08:54:30.965Z,72.70
2022-12-17T08:55:31.467Z,73.20
2022-12-17T08:56:31.965Z,75.80
2022-12-17T08:57:32.555Z,71.40
2022-12-17T08:58:31.968Z,60.60
2022-12-17T08:59:30.557Z,61.00
2022-12-17T09:00:29.468Z,56.20
2022-12-17T09:01:31.772Z,60.20
2022-12-17T09:02:34.674Z,84.90
2022-12-17T09:03:33.114Z,67.30
2022-12-17T09:04:31.502Z,114.20
2022-12-17T09:05:30.649Z,92.90
2022-12-17T09:06:33.364Z,83.30
2022-12-17T09:07:32.543Z,77.00
2022-12-17T09:08:36.642Z,71.10
2022-12-17T09:09:30.971Z,69.70
2022-12-17T09:10:29.560Z,64.90
2022-12-17T09:11:30.194Z,66.00
2022-12-17T09:12:30.466Z,67.20
2022-12-17T09:13:34.241Z,65.10
2022-12-17T09:14:30.544Z,68.20
2022-12-17T09:15:29.554Z,64.00
2022-12-17T09:16:28.602Z,68.60
2022-12-17T09:17:28.555Z,66.60
2022-12-17T09:18:28.573Z,61.60
2022-12-17T09:19:28.529Z,61.20
2022-12-17T09:20:29.599Z,62.50
2022-12-17T09:21:29.512Z,59.60
2022-12-17T09:22:28.510Z,60.40
2022-12-17T09:23:28.522Z,60.80
2022-12-17T09:24:28.491Z,56.30
2022-12-17T09:25:28.497Z,62.10
2022-12-17T09:26:28.477Z,62.70
2022-12-17T09:27:28.475Z,60.70
2022-12-17T09:28:28.495Z,57.50
2022-12-17T09:29:28.455Z,54.10
2022-12-17T09:30:28.475Z,57.70
2022-12-17T09:31:32.436Z,54.00
2022-12-17T09:32:30.436Z,50.30
2022-12-17T09:33:28.457Z,50.10
2022-12-17T09:34:28.422Z,50.50
2022-12-17T09:35:28.414Z,57.80
2022-12-17T09:36:28.409Z,55.80
2022-12-17T09:37:28.410Z,63.30
2022-12-17T09:38:28.398Z,60.00
2022-12-17T09:39:28.420Z,59.40
2022-12-17T09:40:28.384Z,54.80
2022-12-17T09:41:28.378Z,61.30
2022-12-17T09:42:28.372Z,59.00
2022-12-17T09:43:28.359Z,63.40
2022-12-17T09:44:28.381Z,60.80
2022-12-17T09:45:28.345Z,56.40
2022-12-17T09:46:28.446Z,61.40
2022-12-17T09:47:28.332Z,74.90
2022-12-17T09:48:32.373Z,65.90
2022-12-17T09:49:29.341Z,56.20
2022-12-17T09:50:28.303Z,55.50
2022-12-17T09:51:28.298Z,56.00
2022-12-17T09:52:28.302Z,54.60
2022-12-17T09:53:28.285Z,57.20
2022-12-17T09:54:28.306Z,55.20
2022-12-17T09:55:28.271Z,57.50
2022-12-17T09:56:28.267Z,57.30
2022-12-17T09:57:28.258Z,55.60
2022-12-17T09:58:28.252Z,56.00
2022-12-17T09:59:28.269Z,57.80
2022-12-17T10:00:28.237Z,56.20
2022-12-17T10:01:28.349Z,59.60
2022-12-17T10:02:28.357Z,57.60
2022-12-17T10:03:28.242Z,58.20
2022-12-17T10:04:28.238Z,57.00
2022-12-17T10:05:28.200Z,61.00
2022-12-17T10:06:28.196Z,54.10
2022-12-17T10:07:28.189Z,53.30
2022-12-17T10:08:28.185Z,64.00
2022-12-17T10:09:28.199Z,64.80
2022-12-17T10:10:28.168Z,65.90
2022-12-17T10:11:34.141Z,62.00
2022-12-17T10:12:30.150Z,65.30
2022-12-17T10:13:28.146Z,63.00
2022-12-17T10:14:28.158Z,60.50
2022-12-17T10:15:28.161Z,57.50
2022-12-17T10:16:28.128Z,57.90
2022-12-17T10:17:28.117Z,59.50
2022-12-17T10:18:28.111Z,55.70
2022-12-17T10:19:28.126Z,59.90
2022-12-17T10:20:28.092Z,57.20
2022-12-17T10:21:28.091Z,54.50
2022-12-17T10:22:28.084Z,55.20
2022-12-17T10:23:28.074Z,55.60
2022-12-17T10:24:28.101Z,54.70
2022-12-17T10:25:28.054Z,55.00
2022-12-17T10:26:28.048Z,53.10
2022-12-17T10:27:28.041Z,52.50
2022-12-17T10:28:28.036Z,54.00
2022-12-17T10:29:28.090Z,53.80
2022-12-17T10:30:28.065Z,54.60
2022-12-17T10:31:28.086Z,54.40
2022-12-17T10:32:28.002Z,55.50
2022-12-17T10:33:27.997Z,56.60
2022-12-17T10:34:27.982Z,52.70
2022-12-17T10:35:28.027Z,52.70
2022-12-17T10:36:28.093Z,52.20
2022-12-17T10:37:27.966Z,52.30
2022-12-17T10:38:27.960Z,57.10
2022-12-17T10:39:27.953Z,55.40
2022-12-17T10:40:27.978Z,54.60
2022-12-17T10:41:27.938Z,57.70
2022-12-17T10:42:32.911Z,53.80
2022-12-17T10:43:29.954Z,51.50
2022-12-17T10:44:27.915Z,52.70
2022-12-17T10:45:27.963Z,56.60
2022-12-17T10:46:27.925Z,55.40
2022-12-17T10:47:27.894Z,52.30
2022-12-17T10:48:27.896Z,53.00
2022-12-17T10:49:27.888Z,51.50
2022-12-17T10:50:27.899Z,50.30
2022-12-17T10:51:28.867Z,48.80
2022-12-17T10:52:27.857Z,49.80
2022-12-17T10:53:27.846Z,50.60
2022-12-17T10:54:27.846Z,48.20
2022-12-17T10:55:27.864Z,49.90
2022-12-17T10:56:27.838Z,49.30
2022-12-17T10:57:27.822Z,52.20
2022-12-17T10:58:27.812Z,54.10
2022-12-17T10:59:27.807Z,53.50
2022-12-17T11:00:27.830Z,53.40
2022-12-17T11:01:27.870Z,55.00
2022-12-17T11:02:28.000Z,52.20
2022-12-17T11:03:27.829Z,50.60
2022-12-17T11:04:27.770Z,49.20
2022-12-17T11:05:27.795Z,50.40
2022-12-17T11:06:27.765Z,57.50
2022-12-17T11:07:27.749Z,52.90
2022-12-17T11:08:27.754Z,48.50
2022-12-17T11:09:27.734Z,50.50
2022-12-17T11:10:27.761Z,50.10
2022-12-17T11:11:27.724Z,51.00
2022-12-17T11:12:30.849Z,52.90
2022-12-17T11:13:28.711Z,49.40
2022-12-17T11:14:27.696Z,50.20
2022-12-17T11:15:27.731Z,50.40
2022-12-17T11:16:27.798Z,51.50
2022-12-17T11:17:27.679Z,52.50
2022-12-17T11:18:27.676Z,49.50
2022-12-17T11:19:27.664Z,48.80
2022-12-17T11:20:27.690Z,46.60
2022-12-17T11:21:27.650Z,45.70
2022-12-17T11:22:27.648Z,46.30
2022-12-17T11:23:27.634Z,48.40
2022-12-17T11:24:27.633Z,47.60
2022-12-17T11:25:27.618Z,43.90
2022-12-17T11:26:27.642Z,43.80
2022-12-17T11:27:27.636Z,45.40
2022-12-17T11:28:27.603Z,45.40
2022-12-17T11:29:27.594Z,46.90
2022-12-17T11:30:30.777Z,48.10
2022-12-17T11:31:28.675Z,49.80
2022-12-17T11:32:27.575Z,47.00
2022-12-17T11:33:27.569Z,46.60
2022-12-17T11:34:27.572Z,51.40
2022-12-17T11:35:27.563Z,47.20
2022-12-17T11:36:32.514Z,44.00
2022-12-17T11:37:29.548Z,44.10
2022-12-17T11:38:27.535Z,42.00
2022-12-17T11:39:27.524Z,42.40
2022-12-17T11:40:27.520Z,42.50
2022-12-17T11:41:27.539Z,45.80
2022-12-17T11:42:27.524Z,45.20
2022-12-17T11:43:27.497Z,44.90
2022-12-17T11:44:27.502Z,47.90
2022-12-17T11:45:27.490Z,43.60
2022-12-17T11:46:27.558Z,42.90
2022-12-17T11:47:27.471Z,44.60
2022-12-17T11:48:27.469Z,42.90
2022-12-17T11:49:27.458Z,46.00
2022-12-17T11:50:27.461Z,47.80
2022-12-17T11:51:27.468Z,49.60
2022-12-17T11:52:27.438Z,51.00
2022-12-17T11:53:28.323Z,48.70
2022-12-17T11:54:28.428Z,44.10
2022-12-17T11:55:27.420Z,43.40
2022-12-17T11:56:27.433Z,42.00
2022-12-17T11:57:27.401Z,43.10
2022-12-17T11:58:27.396Z,43.40
2022-12-17T11:59:27.401Z,41.50
2022-12-17T12:00:27.402Z,42.90
2022-12-17T12:01:27.565Z,41.40
2022-12-17T12:02:27.424Z,45.00
2022-12-17T12:03:27.465Z,43.00
2022-12-17T12:04:27.350Z,45.60
2022-12-17T12:05:27.363Z,46.90
2022-12-17T12:06:27.377Z,44.20
2022-12-17T12:07:27.327Z,46.60
2022-12-17T12:08:27.322Z,45.10
2022-12-17T12:09:27.361Z,48.00
2022-12-17T12:10:27.313Z,46.80
2022-12-17T12:11:31.536Z,46.40
2022-12-17T12:12:30.503Z,43.30
2022-12-17T12:13:29.513Z,43.10
2022-12-17T12:14:28.269Z,43.00
2022-12-17T12:15:31.485Z,42.90
2022-12-17T12:16:31.570Z,43.10
2022-12-17T12:17:29.985Z,43.30
2022-12-17T12:18:30.488Z,43.70
2022-12-17T12:19:30.485Z,43.30
2022-12-17T12:20:28.571Z,42.00
2022-12-17T12:21:28.985Z,44.40
2022-12-17T12:22:34.562Z,43.20
2022-12-17T12:23:30.026Z,44.60
2022-12-17T12:24:30.545Z,43.30
2022-12-17T12:25:28.985Z,44.40
2022-12-17T12:26:29.536Z,46.70
2022-12-17T12:27:28.503Z,51.70
2022-12-17T12:28:27.986Z,54.70
2022-12-17T12:29:32.543Z,50.30
2022-12-17T12:30:29.039Z,52.20
2022-12-17T12:31:35.105Z,53.20
2022-12-17T12:32:29.327Z,55.10
2022-12-17T12:33:27.283Z,53.10
2022-12-17T12:34:29.544Z,54.70
2022-12-17T12:35:27.297Z,52.60
2022-12-17T12:36:28.568Z,57.10
2022-12-17T12:37:28.993Z,52.10
2022-12-17T12:38:30.072Z,65.10
2022-12-17T12:39:32.109Z,64.50
2022-12-17T12:40:29.183Z,60.80
2022-12-17T12:41:30.618Z,66.80
2022-12-17T12:42:29.094Z,66.30
2022-12-17T12:43:29.617Z,49.10
2022-12-17T12:44:28.545Z,54.90
2022-12-17T12:45:31.117Z,71.60
2022-12-17T12:46:29.162Z,50.40
2022-12-17T12:47:29.488Z,50.20
2022-12-17T12:48:29.547Z,49.60
2022-12-17T12:49:28.035Z,59.60
2022-12-17T12:50:27.045Z,51.90